HADR METAR and TAF | Updated Today

HADR METAR

Aba Tenna Dejazmach Yilma International Airport

Aba Tenna Dejazmach Yilma International Airport (HADR) hasn't published a METAR.
We found the following current weather conditions for Sabīyan from other sources.

Aba Tenna Dejazmach Yilma International Airport (HADR) METAR

  • Weather conditions right now at HADR:
  • Present conditions: Clear
  • Clouds: Clear sky
  • Cloud cover: 6%
  • Wind: 339 at 9kts
  • Temperature: 25.6 celsius
  • Feels like: 25.1 celsius
  • Pressure: 1016mb
  • Humidity: 34%


Useful to know...

HADR TAF

Aba Tenna Dejazmach Yilma International Airport

TAF HADR 052130Z 0600/0706 34006KT C A V O K BECMG 0600/0606 21005KT FEW025
Observation time: 11:46 hr. ago
Need help? Read our tutorial on how to read TAFs or read the parsed version below.

Parsed version of TAF for Aba Tenna Dejazmach Yilma International Airport (HADR)

  • From 06 December at 00:00 UTC, to day 07 of the month at 06:00 UTC
  • Wind: 340 degrees at 6
  • Expected to arise soon, from 06 December at 00:00 UTC, to day 06 of the month at 06:00 UTC
  • Clouds: A few at 762 meters
  • Wind: 210 degrees at 5

Airports near HADR

No airports found within 100nm radius.